createdAt,value
2018-09-26T00:03:33.739Z,101775.71
2018-09-26T00:08:17.271Z,101769.88
2018-09-26T00:13:00.139Z,101762.67
2018-09-26T00:17:43.142Z,101769.48
2018-09-26T00:22:26.030Z,101770.77
2018-09-26T00:27:09.178Z,101779.65
2018-09-26T00:31:52.103Z,101776.84
2018-09-26T00:36:36.554Z,101784.39
2018-09-26T00:41:19.961Z,101800.63
2018-09-26T00:46:03.043Z,101791.33
2018-09-26T00:50:45.968Z,101801.56
2018-09-26T00:55:29.041Z,101803.51
2018-09-26T01:00:12.176Z,101806.71
2018-09-26T01:04:55.319Z,101810.67
2018-09-26T01:09:38.593Z,101818.93
2018-09-26T01:14:21.476Z,101828.86
2018-09-26T01:19:04.430Z,101836.75
2018-09-26T01:23:47.318Z,101835.72
2018-09-26T01:28:30.235Z,101821.37
2018-09-26T01:33:13.150Z,101829.31
2018-09-26T01:37:56.242Z,101828.98
2018-09-26T01:42:39.085Z,101822.52
2018-09-26T01:47:22.013Z,101819.45
2018-09-26T01:52:04.840Z,101818.83
2018-09-26T01:56:48.789Z,101827.80
2018-09-26T02:01:31.683Z,101824.13
2018-09-26T02:06:14.539Z,101815.80
2018-09-26T02:10:57.457Z,101820.71
2018-09-26T02:15:40.373Z,101815.61
2018-09-26T02:20:23.255Z,101814.80
2018-09-26T02:25:07.166Z,101814.34
2018-09-26T02:29:50.055Z,101817.39
2018-09-26T02:34:33.131Z,101819.03
2018-09-26T02:39:16.011Z,101827.56
2018-09-26T02:43:58.874Z,101833.67
2018-09-26T02:48:47.214Z,101836.16
2018-09-26T02:53:30.130Z,101832.36
2018-09-26T02:58:13.203Z,101847.54
2018-09-26T03:02:56.098Z,101861.16
2018-09-26T03:07:39.233Z,101856.22
2018-09-26T03:12:22.093Z,101860.73
2018-09-26T03:17:05.009Z,101862.22
2018-09-26T03:21:47.882Z,101869.91
2018-09-26T03:26:31.008Z,101870.11
2018-09-26T03:31:13.853Z,101867.43
2018-09-26T03:35:56.739Z,101851.13
2018-09-26T03:40:39.651Z,101852.16
2018-09-26T03:45:22.696Z,101840.34
2018-09-26T03:50:05.590Z,101832.05
2018-09-26T03:54:48.508Z,101831.66
2018-09-26T03:59:32.790Z,101810.78
2018-09-26T04:04:15.812Z,101820.20
2018-09-26T04:08:58.666Z,101827.32
2018-09-26T04:13:41.545Z,101827.73
2018-09-26T04:18:25.694Z,101841.28
2018-09-26T04:23:08.514Z,101858.44
2018-09-26T04:27:52.264Z,101864.89
2018-09-26T04:32:35.305Z,101882.57
2018-09-26T04:37:18.371Z,101891.63
2018-09-26T04:42:01.234Z,101887.66
2018-09-26T04:46:44.356Z,101882.85
2018-09-26T04:51:27.215Z,101874.89
2018-09-26T04:56:11.155Z,101880.63
2018-09-26T05:00:54.019Z,101883.26
2018-09-26T05:05:37.955Z,101884.91
2018-09-26T05:10:20.794Z,101892.24
2018-09-26T05:15:03.891Z,101895.14
2018-09-26T05:19:46.892Z,101903.98
2018-09-26T05:24:30.035Z,101913.53
2018-09-26T05:29:12.902Z,101913.73
2018-09-26T05:33:56.727Z,101923.46
2018-09-26T05:38:39.602Z,101921.57
2018-09-26T05:43:22.477Z,101921.44
2018-09-26T05:48:14.423Z,101930.59
2018-09-26T05:52:57.285Z,101927.34
2018-09-26T05:57:40.821Z,101935.95
2018-09-26T06:02:23.727Z,101941.91
2018-09-26T06:07:07.740Z,101949.83
2018-09-26T06:11:50.591Z,101960.55
2018-09-26T06:16:33.727Z,101965.25
2018-09-26T06:21:16.723Z,101977.11
2018-09-26T06:25:59.756Z,101983.02
2018-09-26T06:30:42.648Z,101982.37
2018-09-26T06:35:26.534Z,101982.77
2018-09-26T06:40:09.391Z,101986.17
2018-09-26T06:44:52.266Z,101988.53
2018-09-26T06:49:35.124Z,101997.38
2018-09-26T06:54:18.084Z,101995.48
2018-09-26T06:59:00.934Z,101994.18
2018-09-26T07:03:43.791Z,102000.30
2018-09-26T07:08:34.627Z,102007.00
2018-09-26T07:13:17.498Z,102007.76
2018-09-26T07:18:00.412Z,102005.10
2018-09-26T07:22:43.259Z,102003.72
2018-09-26T07:27:26.151Z,101996.84
2018-09-26T07:32:09.018Z,102007.45
2018-09-26T07:36:52.037Z,102017.80
2018-09-26T07:41:34.872Z,102009.90
2018-09-26T07:46:17.956Z,102008.92
2018-09-26T07:51:00.829Z,102010.36
2018-09-26T07:55:43.753Z,102007.11
2018-09-26T08:00:26.590Z,102005.85
2018-09-26T08:05:10.525Z,102006.94
2018-09-26T08:09:53.364Z,101998.44
2018-09-26T08:14:36.284Z,101998.33
2018-09-26T08:19:19.199Z,101997.39
2018-09-26T08:24:03.276Z,101999.84
2018-09-26T08:28:46.392Z,101995.47
2018-09-26T08:33:29.352Z,101999.28
2018-09-26T08:38:12.255Z,102001.41
2018-09-26T08:42:55.126Z,101995.70
2018-09-26T08:47:37.996Z,101989.27
2018-09-26T08:52:20.892Z,101993.41
2018-09-26T08:57:03.752Z,101976.78
2018-09-26T09:01:47.841Z,101987.66
2018-09-26T09:06:30.825Z,101976.41
2018-09-26T09:11:13.742Z,101984.70
2018-09-26T09:15:56.806Z,101982.31
2018-09-26T09:20:39.675Z,101965.78
2018-09-26T09:25:22.992Z,101970.13
2018-09-26T09:30:06.113Z,101970.14
2018-09-26T09:34:49.122Z,101966.75
2018-09-26T09:39:31.976Z,101967.08
2018-09-26T09:44:14.909Z,101954.97
2018-09-26T09:48:57.772Z,101960.68
2018-09-26T09:53:40.635Z,101944.88
2018-09-26T09:58:23.476Z,101939.45
2018-09-26T10:03:06.521Z,101943.41
2018-09-26T10:07:49.287Z,101952.29
2018-09-26T10:12:32.136Z,101936.92
2018-09-26T10:17:15.064Z,101921.94
2018-09-26T10:21:57.931Z,101927.56
2018-09-26T10:26:40.926Z,101924.97
2018-09-26T10:31:23.842Z,101955.14
2018-09-26T10:36:15.400Z,101932.56
2018-09-26T10:40:59.439Z,101956.88
2018-09-26T10:45:42.441Z,101931.03
2018-09-26T10:50:25.336Z,101919.46
2018-09-26T10:55:09.414Z,101926.91
2018-09-26T10:59:52.298Z,101951.95
2018-09-26T11:04:35.159Z,101943.39
2018-09-26T11:09:17.989Z,101953.17
2018-09-26T11:14:00.945Z,101925.16
2018-09-26T11:18:43.804Z,101932.02
2018-09-26T11:23:27.720Z,101937.55
2018-09-26T11:28:16.148Z,101939.79
2018-09-26T11:32:59.711Z,101877.98
2018-09-26T11:37:42.585Z,101909.48
2018-09-26T11:42:25.441Z,101915.63
2018-09-26T11:47:08.580Z,101880.02
2018-09-26T11:51:51.670Z,101891.73
2018-09-26T11:56:34.548Z,101874.63
2018-09-26T12:01:17.427Z,101911.56
2018-09-26T12:06:00.338Z,101918.02
2018-09-26T12:19:41.743Z,101900.63
2018-09-26T12:24:24.807Z,101881.25
2018-09-26T12:29:07.613Z,101876.92
2018-09-26T12:33:50.453Z,101890.23
2018-09-26T12:38:33.325Z,101865.00
2018-09-26T12:43:16.708Z,101868.50
2018-09-26T12:47:59.612Z,101878.50
2018-09-26T12:52:42.551Z,101885.81
2018-09-26T12:57:25.409Z,101882.18
2018-09-26T13:02:08.241Z,101869.72
2018-09-26T13:06:52.184Z,101863.54
2018-09-26T13:11:35.039Z,101874.33
2018-09-26T13:16:19.726Z,101873.13
2018-09-26T13:21:03.220Z,101889.31
2018-09-26T13:25:46.330Z,101885.83
2018-09-26T13:30:29.203Z,101869.73
2018-09-26T13:35:12.830Z,101863.14
2018-09-26T13:39:55.684Z,101842.70
2018-09-26T13:44:38.582Z,101862.76
2018-09-26T13:49:21.471Z,101854.55
2018-09-26T13:54:04.569Z,101840.88
2018-09-26T13:58:47.425Z,101870.11
2018-09-26T14:03:30.403Z,101861.45
2018-09-26T14:08:13.300Z,101859.84
2018-09-26T14:12:58.233Z,101844.56
2018-09-26T14:17:42.216Z,101828.02
2018-09-26T14:22:25.323Z,101850.88
2018-09-26T14:27:08.018Z,101847.08
2018-09-26T14:31:50.895Z,101859.32
2018-09-26T14:36:33.903Z,101860.72
2018-09-26T14:41:16.842Z,101862.93
2018-09-26T14:45:59.962Z,101864.58
2018-09-26T14:50:42.820Z,101860.50
2018-09-26T14:55:26.056Z,101857.83
2018-09-26T15:00:09.252Z,101858.06
2018-09-26T15:04:52.244Z,101863.35
2018-09-26T15:09:35.103Z,101857.50
2018-09-26T15:14:18.034Z,101863.41
2018-09-26T15:19:00.943Z,101871.26
2018-09-26T15:23:45.364Z,101871.53
2018-09-26T15:28:28.259Z,101875.92
2018-09-26T15:33:11.496Z,101888.47
2018-09-26T15:37:55.220Z,101887.95
2018-09-26T15:42:38.104Z,101878.61
2018-09-26T15:47:20.981Z,101891.70
2018-09-26T15:52:03.896Z,101899.10
2018-09-26T15:56:48.667Z,101896.23
2018-09-26T16:01:31.540Z,101897.87
2018-09-26T16:06:14.601Z,101903.95
2018-09-26T16:10:59.133Z,101910.35
2018-09-26T16:15:42.157Z,101915.77
2018-09-26T16:20:25.106Z,101916.77
2018-09-26T16:25:09.266Z,101930.12
2018-09-26T16:29:52.160Z,101923.33
2018-09-26T16:34:35.798Z,101924.13
2018-09-26T16:39:18.762Z,101938.07
2018-09-26T16:44:01.887Z,101942.81
2018-09-26T16:48:44.796Z,101943.06
2018-09-26T16:53:27.746Z,101953.94
2018-09-26T16:58:10.702Z,101956.98
2018-09-26T17:02:53.813Z,101954.98
2018-09-26T17:07:36.728Z,101975.14
2018-09-26T17:12:19.830Z,101973.64
2018-09-26T17:17:02.837Z,101970.07
2018-09-26T17:21:46.814Z,101980.83
2018-09-26T17:26:29.724Z,101983.28
2018-09-26T17:31:12.669Z,101981.23
2018-09-26T17:35:55.850Z,101989.27
2018-09-26T17:40:38.765Z,101998.89
2018-09-26T17:45:22.874Z,101990.27
2018-09-26T17:50:06.627Z,102001.34
2018-09-26T17:54:49.590Z,101995.92
2018-09-26T17:59:32.604Z,101996.84
2018-09-26T18:04:15.706Z,101994.13
2018-09-26T18:08:58.651Z,102001.38
2018-09-26T18:13:41.724Z,101996.37
2018-09-26T18:18:26.654Z,102006.19
2018-09-26T18:23:09.743Z,101994.51
2018-09-26T18:27:53.118Z,101986.56
2018-09-26T18:32:38.085Z,101988.23
2018-09-26T18:37:21.133Z,101977.12
2018-09-26T18:42:04.264Z,101982.67
2018-09-26T18:46:47.285Z,101971.70
2018-09-26T18:51:30.702Z,101963.02
2018-09-26T18:56:13.715Z,101961.20
2018-09-26T19:00:56.687Z,101968.84
2018-09-26T19:05:40.126Z,101963.55
2018-09-26T19:10:23.092Z,101965.78
2018-09-26T19:15:06.103Z,101969.00
2018-09-26T19:19:49.026Z,101955.59
2018-09-26T19:24:32.421Z,101951.56
2018-09-26T19:29:15.304Z,101953.59
2018-09-26T19:33:58.380Z,101952.45
2018-09-26T19:38:41.317Z,101952.16
2018-09-26T19:43:24.456Z,101947.50
2018-09-26T19:48:07.547Z,101953.59
2018-09-26T19:52:50.611Z,101952.09
2018-09-26T19:57:33.553Z,101953.94
2018-09-26T20:02:17.019Z,101940.20
2018-09-26T20:06:59.989Z,101946.58
2018-09-26T20:11:42.900Z,101951.94
2018-09-26T20:16:26.188Z,101951.50
2018-09-26T20:21:09.517Z,101943.09
2018-09-26T20:25:53.614Z,101953.49
2018-09-26T20:30:36.859Z,101959.13
2018-09-26T20:35:20.981Z,101960.84
2018-09-26T20:40:03.976Z,101966.49
2018-09-26T20:44:46.959Z,101954.43
2018-09-26T20:49:29.869Z,101957.84
2018-09-26T20:54:12.961Z,101957.56
2018-09-26T20:58:55.865Z,101970.98
2018-09-26T21:03:39.814Z,101964.84
2018-09-26T21:08:22.695Z,101952.35
2018-09-26T21:13:06.163Z,101962.52
2018-09-26T21:17:49.175Z,101959.91
2018-09-26T21:22:33.066Z,101959.23
2018-09-26T21:27:16.344Z,101961.72
2018-09-26T21:31:59.400Z,101946.40
2018-09-26T21:36:42.317Z,101950.42
2018-09-26T21:41:25.755Z,101951.79
2018-09-26T21:46:09.156Z,101947.39
2018-09-26T21:50:52.047Z,101937.34
2018-09-26T21:55:36.151Z,101952.32
2018-09-26T22:00:19.036Z,101947.53
2018-09-26T22:05:02.106Z,101932.39
2018-09-26T22:09:44.951Z,101943.22
2018-09-26T22:14:28.056Z,101941.19
2018-09-26T22:19:10.904Z,101935.30
2018-09-26T22:23:54.440Z,101932.03
2018-09-26T22:28:37.268Z,101925.01
2018-09-26T22:33:20.145Z,101929.89
2018-09-26T22:38:03.006Z,101924.40
2018-09-26T22:42:45.896Z,101925.01
2018-09-26T22:47:28.811Z,101920.47
2018-09-26T22:52:11.828Z,101919.77
2018-09-26T22:56:54.967Z,101914.70
2018-09-26T23:01:37.939Z,101924.19
2018-09-26T23:06:20.870Z,101928.45
2018-09-26T23:11:04.620Z,101929.39
2018-09-26T23:15:47.479Z,101917.98
2018-09-26T23:20:30.331Z,101919.05
2018-09-26T23:25:14.409Z,101922.48
2018-09-26T23:29:57.239Z,101918.78
2018-09-26T23:34:40.151Z,101904.62
2018-09-26T23:39:23.019Z,101902.91
2018-09-26T23:44:06.650Z,101898.42
2018-09-26T23:48:49.775Z,101894.13
2018-09-26T23:53:32.860Z,101880.54
2018-09-26T23:58:15.711Z,101881.14
